Grisdale, Washington
Current Conditions -  °F | °C
As of 6:53 PM on Thursday 25 Dec 2014 (Local Time) from KSHN Reporting Station
Overcast Overcast  
Wind Chill: 37°   Ceiling: 1100
Heat Index: 37°   Visibility: 10mi
Dew Point: 36°   Wind: 0mph
Humidity: 96%   Direction: NA
Pressure: 30.23"   Gusts: NA
Location:  47.555°N, 123.746°W
Report Text: KSHN 260253Z AUTO 00000KT 10SM OVC011 03/02 A3023 RMK AO2 SLP242 T00280022 51003
Loading
Personal Weather Stations






























Interactive Weather Map New forecast layout! Learn more

10-Day Weather Forecast

Advertisements
Track Severe Weather on mobile